RYR10GJ EGSS-EKCH
Flight info
| Callsign | RYR10GJ |
|---|---|
| Flight time | 1h 19m |
| Altitude | 37000 |
| Route | CLN P44 SOMVA DCT MAVAS DCT AGISU DCT TALSA P729 TUDLO |
| Aircraft | B738/M-SDE2E3FGHIRWXY/LB1 |
Departure
| Time | 2026-04-26 14:04 |
|---|---|
| Airport | London Stansted Airport (EGSS) |
Arrival
| Time | 2026-04-26 15:24 |
|---|---|
| Airport | Copenhagen Kastrup Airport (EKCH) |
| Time | Latitude | Longitude | Altitude | Speed | Heading |
|---|---|---|---|---|---|
| 2026-04-26 13:46 | 51.89083 | 0.25648 | 351 ft | 0 kts | 43° |
| 2026-04-26 13:53 | 51.89076 | 0.25638 | 351 ft | 4 kts | 42° |
| 2026-04-26 13:53 | 51.89055 | 0.25611 | 351 ft | 4 kts | 30° |
| 2026-04-26 13:54 | 51.89032 | 0.25596 | 358 ft | 4 kts | 353° |
| 2026-04-26 13:54 | 51.89019 | 0.25604 | 358 ft | 0 kts | 313° |
| 2026-04-26 13:56 | 51.89019 | 0.25603 | 358 ft | 0 kts | 313° |
| 2026-04-26 13:57 | 51.89028 | 0.25588 | 358 ft | 4 kts | 312° |
| 2026-04-26 13:57 | 51.89054 | 0.25542 | 353 ft | 7 kts | 313° |
| 2026-04-26 13:57 | 51.89097 | 0.25467 | 351 ft | 11 kts | 313° |
| 2026-04-26 13:57 | 51.89156 | 0.25364 | 353 ft | 14 kts | 313° |
| 2026-04-26 13:58 | 51.89138 | 0.25227 | 348 ft | 15 kts | 226° |
| 2026-04-26 13:58 | 51.89058 | 0.25100 | 352 ft | 17 kts | 223° |
| 2026-04-26 13:58 | 51.88964 | 0.24959 | 350 ft | 19 kts | 222° |
| 2026-04-26 13:58 | 51.88896 | 0.24856 | 354 ft | 21 kts | 222° |
| 2026-04-26 13:59 | 51.88784 | 0.24690 | 352 ft | 23 kts | 222° |
| 2026-04-26 13:59 | 51.88669 | 0.24517 | 351 ft | 23 kts | 223° |
| 2026-04-26 13:59 | 51.88547 | 0.24334 | 348 ft | 25 kts | 223° |
| 2026-04-26 14:00 | 51.88161 | 0.23755 | 351 ft | 23 kts | 223° |
| 2026-04-26 14:00 | 51.88044 | 0.23580 | 348 ft | 23 kts | 223° |
| 2026-04-26 14:00 | 51.87969 | 0.23467 | 348 ft | 22 kts | 223° |
| 2026-04-26 14:01 | 51.87883 | 0.23240 | 354 ft | 17 kts | 304° |
| 2026-04-26 14:01 | 51.87904 | 0.23075 | 351 ft | 17 kts | 231° |
| 2026-04-26 14:01 | 51.87822 | 0.22946 | 353 ft | 14 kts | 236° |
| 2026-04-26 14:01 | 51.87840 | 0.22847 | 341 ft | 1 kts | 301° |
| 2026-04-26 14:02 | 51.87861 | 0.22810 | 338 ft | 8 kts | 311° |
| 2026-04-26 14:02 | 51.87874 | 0.22785 | 336 ft | 0 kts | 312° |
| 2026-04-26 14:03 | 51.87875 | 0.22785 | 336 ft | 1 kts | 312° |
| 2026-04-26 14:03 | 51.87900 | 0.22740 | 335 ft | 8 kts | 313° |
| 2026-04-26 14:03 | 51.87955 | 0.22687 | 335 ft | 11 kts | 9° |
| 2026-04-26 14:03 | 51.88035 | 0.22783 | 334 ft | 22 kts | 44° |
| 2026-04-26 14:04 | 51.88300 | 0.23179 | 334 ft | 83 kts | 43° |
| 2026-04-26 14:04 | 51.88867 | 0.24030 | 339 ft | 137 kts | 43° |
| 2026-04-26 14:04 | 51.89672 | 0.25175 | 514 ft | 164 kts | 43° |
| 2026-04-26 14:04 | 51.90521 | 0.26428 | 1103 ft | 168 kts | 47° |
| 2026-04-26 14:05 | 51.91329 | 0.27867 | 1518 ft | 168 kts | 57° |
| 2026-04-26 14:05 | 51.91765 | 0.29471 | 1720 ft | 153 kts | 85° |
| 2026-04-26 14:05 | 51.91640 | 0.31260 | 1773 ft | 172 kts | 108° |
| 2026-04-26 14:05 | 51.91239 | 0.33112 | 2472 ft | 184 kts | 114° |
| 2026-04-26 14:06 | 51.90662 | 0.35156 | 2761 ft | 214 kts | 116° |
| 2026-04-26 14:06 | 51.89980 | 0.37405 | 3061 ft | 233 kts | 116° |
| 2026-04-26 14:06 | 51.89246 | 0.39866 | 3436 ft | 254 kts | 116° |
| 2026-04-26 14:06 | 51.88461 | 0.42482 | 4146 ft | 261 kts | 116° |
| 2026-04-26 14:07 | 51.87676 | 0.45130 | 5130 ft | 261 kts | 116° |
| 2026-04-26 14:07 | 51.86889 | 0.47805 | 5992 ft | 267 kts | 116° |
| 2026-04-26 14:07 | 51.86072 | 0.50592 | 6767 ft | 274 kts | 115° |
| 2026-04-26 14:07 | 51.85259 | 0.53363 | 7537 ft | 278 kts | 116° |
| 2026-04-26 14:08 | 51.84419 | 0.56219 | 8337 ft | 283 kts | 116° |
| 2026-04-26 14:08 | 51.83573 | 0.59148 | 9115 ft | 290 kts | 112° |
| 2026-04-26 14:08 | 51.83042 | 0.62300 | 9945 ft | 294 kts | 98° |
| 2026-04-26 14:08 | 51.82952 | 0.65638 | 10660 ft | 301 kts | 88° |
| 2026-04-26 14:09 | 51.83085 | 0.69046 | 11396 ft | 304 kts | 86° |
| 2026-04-26 14:09 | 51.83247 | 0.72486 | 12152 ft | 308 kts | 86° |
| 2026-04-26 14:09 | 51.83403 | 0.75957 | 12952 ft | 311 kts | 86° |
| 2026-04-26 14:09 | 51.83548 | 0.79507 | 13288 ft | 326 kts | 86° |
| 2026-04-26 14:10 | 51.83688 | 0.83186 | 13184 ft | 325 kts | 87° |
| 2026-04-26 14:10 | 51.83820 | 0.86812 | 13225 ft | 323 kts | 87° |
| 2026-04-26 14:10 | 51.83979 | 0.90517 | 13358 ft | 340 kts | 82° |
| 2026-04-26 14:10 | 51.84565 | 0.94308 | 13840 ft | 352 kts | 72° |
| 2026-04-26 14:11 | 51.86146 | 1.01897 | 15245 ft | 359 kts | 71° |
| 2026-04-26 14:11 | 51.86936 | 1.05689 | 15902 ft | 362 kts | 71° |
| 2026-04-26 14:11 | 51.87742 | 1.09632 | 16568 ft | 367 kts | 71° |
| 2026-04-26 14:12 | 51.88529 | 1.13556 | 17041 ft | 376 kts | 71° |
| 2026-04-26 14:12 | 51.89338 | 1.17638 | 17530 ft | 384 kts | 72° |
| 2026-04-26 14:12 | 51.90152 | 1.21783 | 18170 ft | 388 kts | 72° |
| 2026-04-26 14:12 | 51.90968 | 1.25965 | 18807 ft | 391 kts | 72° |
| 2026-04-26 14:13 | 51.92613 | 1.34433 | 19919 ft | 397 kts | 72° |
| 2026-04-26 14:13 | 51.93445 | 1.38733 | 20468 ft | 400 kts | 72° |
| 2026-04-26 14:13 | 51.94279 | 1.43051 | 21005 ft | 404 kts | 72° |
| 2026-04-26 14:14 | 51.95122 | 1.47423 | 21547 ft | 407 kts | 71° |
| 2026-04-26 14:14 | 51.95970 | 1.51834 | 22032 ft | 412 kts | 71° |
| 2026-04-26 14:14 | 51.96826 | 1.56288 | 22346 ft | 415 kts | 71° |
| 2026-04-26 14:14 | 51.97682 | 1.60758 | 22328 ft | 414 kts | 71° |
| 2026-04-26 14:15 | 51.98522 | 1.65159 | 22345 ft | 416 kts | 71° |
| 2026-04-26 14:15 | 51.99515 | 1.69613 | 22644 ft | 420 kts | 63° |
| 2026-04-26 14:15 | 52.00878 | 1.73785 | 23297 ft | 418 kts | 59° |
| 2026-04-26 14:15 | 52.02309 | 1.77911 | 23891 ft | 419 kts | 59° |
| 2026-04-26 14:16 | 52.03745 | 1.82058 | 24295 ft | 423 kts | 59° |
| 2026-04-26 14:16 | 52.05178 | 1.86260 | 24660 ft | 427 kts | 59° |
| 2026-04-26 14:16 | 52.06608 | 1.90512 | 25062 ft | 431 kts | 59° |
| 2026-04-26 14:16 | 52.08043 | 1.94809 | 25449 ft | 433 kts | 59° |
| 2026-04-26 14:17 | 52.09482 | 1.99150 | 25845 ft | 436 kts | 59° |
| 2026-04-26 14:17 | 52.10917 | 2.03510 | 26228 ft | 439 kts | 59° |
| 2026-04-26 14:17 | 52.12342 | 2.07851 | 26594 ft | 442 kts | 59° |
| 2026-04-26 14:17 | 52.13795 | 2.12288 | 26959 ft | 445 kts | 59° |
| 2026-04-26 14:18 | 52.15256 | 2.16750 | 27322 ft | 448 kts | 59° |
| 2026-04-26 14:18 | 52.16728 | 2.21253 | 27679 ft | 450 kts | 59° |
| 2026-04-26 14:18 | 52.18202 | 2.25771 | 28017 ft | 453 kts | 59° |
| 2026-04-26 14:18 | 52.19686 | 2.30324 | 28365 ft | 456 kts | 59° |
| 2026-04-26 14:19 | 52.21176 | 2.34904 | 28702 ft | 458 kts | 59° |
| 2026-04-26 14:19 | 52.22671 | 2.39510 | 29028 ft | 461 kts | 59° |
| 2026-04-26 14:19 | 52.24174 | 2.44149 | 29350 ft | 464 kts | 59° |
| 2026-04-26 14:19 | 52.25664 | 2.48758 | 29683 ft | 466 kts | 59° |
| 2026-04-26 14:20 | 52.27176 | 2.53441 | 30045 ft | 467 kts | 59° |
| 2026-04-26 14:20 | 52.28692 | 2.58144 | 30336 ft | 470 kts | 59° |
| 2026-04-26 14:20 | 52.30208 | 2.62891 | 30579 ft | 473 kts | 60° |
| 2026-04-26 14:20 | 52.31458 | 2.67895 | 30811 ft | 479 kts | 70° |
| 2026-04-26 14:21 | 52.32393 | 2.73126 | 31090 ft | 481 kts | 72° |
| 2026-04-26 14:21 | 52.33280 | 2.78417 | 31356 ft | 482 kts | 72° |
| 2026-04-26 14:21 | 52.34163 | 2.83702 | 31672 ft | 482 kts | 72° |
| 2026-04-26 14:21 | 52.35060 | 2.88969 | 32041 ft | 480 kts | 71° |
| 2026-04-26 14:22 | 52.35972 | 2.94220 | 32406 ft | 479 kts | 71° |
| 2026-04-26 14:22 | 52.36890 | 2.99450 | 32743 ft | 478 kts | 71° |
| 2026-04-26 14:22 | 52.37808 | 3.04676 | 33152 ft | 475 kts | 71° |
| 2026-04-26 14:22 | 52.38716 | 3.09865 | 33504 ft | 474 kts | 70° |
| 2026-04-26 14:23 | 52.39881 | 3.14886 | 33743 ft | 470 kts | 59° |
| 2026-04-26 14:23 | 52.41522 | 3.19417 | 34000 ft | 465 kts | 50° |
| 2026-04-26 14:23 | 52.43437 | 3.23687 | 34336 ft | 463 kts | 49° |
| 2026-04-26 14:23 | 52.45355 | 3.27919 | 34613 ft | 462 kts | 49° |
| 2026-04-26 14:24 | 52.47270 | 3.32156 | 34859 ft | 462 kts | 49° |
| 2026-04-26 14:24 | 52.49174 | 3.36403 | 35109 ft | 462 kts | 49° |
| 2026-04-26 14:24 | 52.51070 | 3.40668 | 35351 ft | 461 kts | 50° |
| 2026-04-26 14:24 | 52.52952 | 3.44930 | 35619 ft | 460 kts | 50° |
| 2026-04-26 14:25 | 52.54823 | 3.49191 | 35870 ft | 460 kts | 50° |
| 2026-04-26 14:25 | 52.56690 | 3.53458 | 36206 ft | 457 kts | 50° |
| 2026-04-26 14:25 | 52.58535 | 3.57684 | 36512 ft | 454 kts | 50° |
| 2026-04-26 14:25 | 52.60379 | 3.61914 | 36698 ft | 455 kts | 50° |
| 2026-04-26 14:26 | 52.62201 | 3.66096 | 36855 ft | 456 kts | 50° |
| 2026-04-26 14:26 | 52.64069 | 3.70392 | 37077 ft | 455 kts | 50° |
| 2026-04-26 14:26 | 52.65909 | 3.74628 | 37325 ft | 454 kts | 50° |
| 2026-04-26 14:27 | 52.69584 | 3.83111 | 37357 ft | 460 kts | 50° |
| 2026-04-26 14:27 | 52.73298 | 3.91715 | 37353 ft | 460 kts | 50° |
| 2026-04-26 14:28 | 52.76994 | 4.00316 | 37351 ft | 458 kts | 51° |
| 2026-04-26 14:28 | 52.80664 | 4.08879 | 37354 ft | 456 kts | 50° |
| 2026-04-26 14:29 | 52.84296 | 4.17382 | 37348 ft | 455 kts | 51° |
| 2026-04-26 14:29 | 52.87939 | 4.25940 | 37349 ft | 454 kts | 51° |
| 2026-04-26 14:30 | 52.91567 | 4.34489 | 37350 ft | 453 kts | 51° |
| 2026-04-26 14:30 | 52.95183 | 4.43039 | 37359 ft | 453 kts | 51° |
| 2026-04-26 14:31 | 52.98799 | 4.51619 | 37365 ft | 454 kts | 51° |
| 2026-04-26 14:31 | 53.02416 | 4.60229 | 37355 ft | 455 kts | 51° |
| 2026-04-26 14:32 | 53.06042 | 4.68890 | 37342 ft | 456 kts | 51° |
| 2026-04-26 14:32 | 53.09639 | 4.77513 | 37357 ft | 457 kts | 51° |
| 2026-04-26 14:33 | 53.13266 | 4.86238 | 37347 ft | 458 kts | 51° |
| 2026-04-26 14:33 | 53.16894 | 4.94994 | 37362 ft | 459 kts | 51° |
| 2026-04-26 14:34 | 53.20520 | 5.03775 | 37353 ft | 460 kts | 51° |
| 2026-04-26 14:34 | 53.24144 | 5.12581 | 37368 ft | 461 kts | 51° |
| 2026-04-26 14:35 | 53.27772 | 5.21424 | 37354 ft | 461 kts | 51° |
| 2026-04-26 14:35 | 53.31384 | 5.30264 | 37356 ft | 460 kts | 51° |
| 2026-04-26 14:36 | 53.34985 | 5.39110 | 37366 ft | 459 kts | 51° |
| 2026-04-26 14:36 | 53.38568 | 5.47943 | 37373 ft | 458 kts | 51° |
| 2026-04-26 14:37 | 53.42142 | 5.56783 | 37374 ft | 457 kts | 52° |
| 2026-04-26 14:37 | 53.45702 | 5.65619 | 37372 ft | 457 kts | 52° |
| 2026-04-26 14:38 | 53.49228 | 5.74400 | 37371 ft | 456 kts | 52° |
| 2026-04-26 14:38 | 53.52769 | 5.83252 | 37365 ft | 456 kts | 52° |
| 2026-04-26 14:39 | 53.56303 | 5.92115 | 37365 ft | 455 kts | 52° |
| 2026-04-26 14:39 | 53.59823 | 6.00975 | 37380 ft | 456 kts | 52° |
| 2026-04-26 14:40 | 53.63343 | 6.09867 | 37364 ft | 456 kts | 52° |
| 2026-04-26 14:40 | 53.66859 | 6.18779 | 37360 ft | 457 kts | 52° |
| 2026-04-26 14:41 | 53.70374 | 6.27723 | 37370 ft | 457 kts | 52° |
| 2026-04-26 14:41 | 53.73887 | 6.36692 | 37361 ft | 458 kts | 52° |
| 2026-04-26 14:42 | 53.77375 | 6.45629 | 37361 ft | 459 kts | 52° |
| 2026-04-26 14:42 | 53.80888 | 6.54663 | 37359 ft | 459 kts | 52° |
| 2026-04-26 14:43 | 53.84392 | 6.63707 | 37363 ft | 460 kts | 52° |
| 2026-04-26 14:43 | 53.87898 | 6.72790 | 37356 ft | 460 kts | 53° |
| 2026-04-26 14:44 | 53.91398 | 6.81888 | 37356 ft | 461 kts | 53° |
| 2026-04-26 14:44 | 53.94873 | 6.90957 | 37355 ft | 461 kts | 53° |
| 2026-04-26 14:45 | 53.98365 | 7.00101 | 37360 ft | 461 kts | 53° |
| 2026-04-26 14:45 | 54.01851 | 7.09264 | 37357 ft | 461 kts | 53° |
| 2026-04-26 14:46 | 54.04740 | 7.16880 | 37369 ft | 461 kts | 53° |
| 2026-04-26 14:46 | 54.08224 | 7.26101 | 37359 ft | 461 kts | 53° |
| 2026-04-26 14:47 | 54.11691 | 7.35308 | 37358 ft | 461 kts | 53° |
| 2026-04-26 14:47 | 54.15148 | 7.44526 | 37368 ft | 461 kts | 54° |
| 2026-04-26 14:48 | 54.18583 | 7.53715 | 37356 ft | 461 kts | 54° |
| 2026-04-26 14:48 | 54.22026 | 7.62963 | 37359 ft | 461 kts | 54° |
| 2026-04-26 14:49 | 54.25467 | 7.72236 | 37375 ft | 461 kts | 54° |
| 2026-04-26 14:49 | 54.28895 | 7.81514 | 37362 ft | 462 kts | 54° |
| 2026-04-26 14:50 | 54.32321 | 7.90818 | 37346 ft | 462 kts | 54° |
| 2026-04-26 14:50 | 54.35740 | 8.00137 | 37351 ft | 462 kts | 54° |
| 2026-04-26 14:51 | 54.38911 | 8.08815 | 37340 ft | 462 kts | 54° |
| 2026-04-26 14:51 | 54.42274 | 8.18049 | 37346 ft | 462 kts | 54° |
| 2026-04-26 14:52 | 54.45676 | 8.27427 | 37345 ft | 462 kts | 54° |
| 2026-04-26 14:52 | 54.49075 | 8.36830 | 37347 ft | 463 kts | 54° |
| 2026-04-26 14:53 | 54.52468 | 8.46252 | 37334 ft | 464 kts | 54° |
| 2026-04-26 14:53 | 54.55857 | 8.55702 | 37331 ft | 464 kts | 54° |
| 2026-04-26 14:54 | 54.59239 | 8.65169 | 37338 ft | 464 kts | 54° |
| 2026-04-26 14:54 | 54.62622 | 8.74672 | 37335 ft | 465 kts | 54° |
| 2026-04-26 14:55 | 54.65997 | 8.84193 | 37331 ft | 465 kts | 55° |
| 2026-04-26 14:55 | 54.69313 | 8.93588 | 37005 ft | 455 kts | 54° |
| 2026-04-26 14:55 | 54.70960 | 8.98267 | 36363 ft | 456 kts | 54° |
| 2026-04-26 14:56 | 54.72618 | 9.02980 | 35617 ft | 461 kts | 54° |
| 2026-04-26 14:56 | 54.74291 | 9.07740 | 34905 ft | 465 kts | 55° |
| 2026-04-26 14:56 | 54.75997 | 9.12607 | 34188 ft | 467 kts | 55° |
| 2026-04-26 14:56 | 54.77662 | 9.17370 | 33444 ft | 469 kts | 55° |
| 2026-04-26 14:57 | 54.79347 | 9.22204 | 32733 ft | 470 kts | 55° |
| 2026-04-26 14:57 | 54.81041 | 9.27072 | 32021 ft | 471 kts | 55° |
| 2026-04-26 14:57 | 54.82736 | 9.31953 | 31232 ft | 474 kts | 55° |
| 2026-04-26 14:57 | 54.84437 | 9.36859 | 30497 ft | 475 kts | 55° |
| 2026-04-26 14:58 | 54.86138 | 9.41775 | 29695 ft | 475 kts | 55° |
| 2026-04-26 14:58 | 54.87830 | 9.46681 | 29120 ft | 470 kts | 55° |
| 2026-04-26 14:58 | 54.89494 | 9.51518 | 28590 ft | 465 kts | 55° |
| 2026-04-26 14:58 | 54.91164 | 9.56371 | 28051 ft | 473 kts | 55° |
| 2026-04-26 14:59 | 54.92868 | 9.61323 | 27547 ft | 481 kts | 55° |
| 2026-04-26 14:59 | 54.94585 | 9.66329 | 27030 ft | 483 kts | 55° |
| 2026-04-26 14:59 | 54.96304 | 9.71359 | 26516 ft | 482 kts | 55° |
| 2026-04-26 14:59 | 54.97436 | 9.74678 | 26187 ft | 482 kts | 55° |
| 2026-04-26 15:00 | 54.99698 | 9.81326 | 25524 ft | 481 kts | 55° |
| 2026-04-26 15:00 | 55.01418 | 9.86390 | 25032 ft | 478 kts | 56° |
| 2026-04-26 15:00 | 55.03050 | 9.91217 | 24533 ft | 460 kts | 55° |
| 2026-04-26 15:00 | 55.04662 | 9.96000 | 24054 ft | 443 kts | 55° |
| 2026-04-26 15:01 | 55.06198 | 10.00561 | 23522 ft | 429 kts | 55° |
| 2026-04-26 15:01 | 55.07666 | 10.04921 | 22973 ft | 417 kts | 55° |
| 2026-04-26 15:01 | 55.09115 | 10.09228 | 22430 ft | 406 kts | 55° |
| 2026-04-26 15:01 | 55.10530 | 10.13434 | 21917 ft | 397 kts | 55° |
| 2026-04-26 15:02 | 55.11918 | 10.17567 | 21408 ft | 392 kts | 54° |
| 2026-04-26 15:02 | 55.13300 | 10.21682 | 20906 ft | 394 kts | 54° |
| 2026-04-26 15:02 | 55.14689 | 10.25825 | 20409 ft | 395 kts | 54° |
| 2026-04-26 15:02 | 55.16074 | 10.29970 | 19916 ft | 395 kts | 55° |
| 2026-04-26 15:03 | 55.17452 | 10.34107 | 19429 ft | 393 kts | 55° |
| 2026-04-26 15:03 | 55.18826 | 10.38240 | 18966 ft | 392 kts | 55° |
| 2026-04-26 15:03 | 55.20190 | 10.42352 | 18466 ft | 389 kts | 55° |
| 2026-04-26 15:03 | 55.21545 | 10.46441 | 17931 ft | 388 kts | 55° |
| 2026-04-26 15:04 | 55.22891 | 10.50511 | 17432 ft | 385 kts | 55° |
| 2026-04-26 15:04 | 55.24224 | 10.54546 | 17044 ft | 379 kts | 55° |
| 2026-04-26 15:04 | 55.25537 | 10.58529 | 16651 ft | 375 kts | 55° |
| 2026-04-26 15:04 | 55.26814 | 10.62411 | 16267 ft | 370 kts | 55° |
| 2026-04-26 15:05 | 55.27996 | 10.66408 | 15882 ft | 370 kts | 64° |
| 2026-04-26 15:05 | 55.28546 | 10.69310 | 15642 ft | 370 kts | 69° |
| 2026-04-26 15:05 | 55.29453 | 10.75034 | 15154 ft | 365 kts | 70° |
| 2026-04-26 15:05 | 55.30127 | 10.79311 | 14788 ft | 362 kts | 70° |
| 2026-04-26 15:06 | 55.30815 | 10.83541 | 14451 ft | 358 kts | 69° |
| 2026-04-26 15:06 | 55.31516 | 10.87722 | 14080 ft | 355 kts | 68° |
| 2026-04-26 15:06 | 55.32219 | 10.91869 | 13679 ft | 352 kts | 68° |
| 2026-04-26 15:06 | 55.32915 | 10.95976 | 13285 ft | 349 kts | 69° |
| 2026-04-26 15:07 | 55.34276 | 11.04111 | 12504 ft | 344 kts | 69° |
| 2026-04-26 15:07 | 55.34945 | 11.08139 | 12120 ft | 342 kts | 69° |
| 2026-04-26 15:07 | 55.35607 | 11.12136 | 11762 ft | 340 kts | 69° |
| 2026-04-26 15:08 | 55.36264 | 11.16112 | 11396 ft | 337 kts | 69° |
| 2026-04-26 15:08 | 55.36901 | 11.19988 | 11164 ft | 324 kts | 69° |
| 2026-04-26 15:08 | 55.37519 | 11.23749 | 10874 ft | 314 kts | 69° |
| 2026-04-26 15:08 | 55.38104 | 11.27323 | 10798 ft | 302 kts | 69° |
| 2026-04-26 15:09 | 55.38681 | 11.30837 | 10616 ft | 296 kts | 69° |
| 2026-04-26 15:09 | 55.39251 | 11.34308 | 10326 ft | 295 kts | 69° |
| 2026-04-26 15:09 | 55.39818 | 11.37764 | 10028 ft | 293 kts | 69° |
| 2026-04-26 15:09 | 55.40382 | 11.41211 | 9703 ft | 292 kts | 69° |
| 2026-04-26 15:10 | 55.40942 | 11.44638 | 9391 ft | 291 kts | 69° |
| 2026-04-26 15:10 | 55.41311 | 11.46908 | 9170 ft | 290 kts | 69° |
| 2026-04-26 15:10 | 55.42052 | 11.51468 | 8782 ft | 288 kts | 70° |
| 2026-04-26 15:10 | 55.42600 | 11.54860 | 8476 ft | 287 kts | 70° |
| 2026-04-26 15:11 | 55.43147 | 11.58245 | 8169 ft | 286 kts | 70° |
| 2026-04-26 15:11 | 55.43681 | 11.61559 | 7885 ft | 284 kts | 70° |
| 2026-04-26 15:11 | 55.44422 | 11.64743 | 7556 ft | 279 kts | 55° |
| 2026-04-26 15:11 | 55.45493 | 11.67570 | 7272 ft | 276 kts | 51° |
| 2026-04-26 15:12 | 55.46616 | 11.70320 | 6980 ft | 275 kts | 51° |
| 2026-04-26 15:12 | 55.47732 | 11.73062 | 6665 ft | 275 kts | 51° |
| 2026-04-26 15:12 | 55.48831 | 11.75819 | 6367 ft | 274 kts | 52° |
| 2026-04-26 15:12 | 55.49917 | 11.78588 | 6087 ft | 273 kts | 52° |
| 2026-04-26 15:13 | 55.50991 | 11.81353 | 5746 ft | 273 kts | 53° |
| 2026-04-26 15:13 | 55.52061 | 11.84122 | 5429 ft | 273 kts | 53° |
| 2026-04-26 15:13 | 55.53128 | 11.86889 | 5113 ft | 272 kts | 53° |
| 2026-04-26 15:13 | 55.54186 | 11.89650 | 4814 ft | 271 kts | 54° |
| 2026-04-26 15:14 | 55.55238 | 11.92401 | 4516 ft | 269 kts | 53° |
| 2026-04-26 15:14 | 55.56263 | 11.95092 | 4369 ft | 262 kts | 53° |
| 2026-04-26 15:14 | 55.57275 | 11.97753 | 4273 ft | 253 kts | 54° |
| 2026-04-26 15:14 | 55.58237 | 12.00275 | 4125 ft | 249 kts | 53° |
| 2026-04-26 15:15 | 55.59204 | 12.02814 | 4040 ft | 249 kts | 53° |
| 2026-04-26 15:15 | 55.60185 | 12.05395 | 4008 ft | 254 kts | 53° |
| 2026-04-26 15:15 | 55.61165 | 12.07978 | 3996 ft | 252 kts | 54° |
| 2026-04-26 15:15 | 55.62152 | 12.10504 | 3984 ft | 245 kts | 47° |
| 2026-04-26 15:16 | 55.63361 | 12.12455 | 3995 ft | 231 kts | 36° |
| 2026-04-26 15:16 | 55.64604 | 12.14250 | 3991 ft | 229 kts | 37° |
| 2026-04-26 15:16 | 55.65704 | 12.16292 | 3980 ft | 234 kts | 63° |
| 2026-04-26 15:16 | 55.65922 | 12.19123 | 4023 ft | 241 kts | 104° |
| 2026-04-26 15:17 | 55.65126 | 12.21705 | 4019 ft | 241 kts | 137° |
| 2026-04-26 15:17 | 55.64237 | 12.22838 | 3997 ft | 238 kts | 160° |
| 2026-04-26 15:17 | 55.62103 | 12.23375 | 4000 ft | 232 kts | 181° |
| 2026-04-26 15:17 | 55.60453 | 12.23449 | 3751 ft | 241 kts | 181° |
| 2026-04-26 15:18 | 55.58778 | 12.23522 | 3494 ft | 240 kts | 182° |
| 2026-04-26 15:18 | 55.57108 | 12.23607 | 3219 ft | 239 kts | 181° |
| 2026-04-26 15:18 | 55.55482 | 12.23703 | 3023 ft | 232 kts | 181° |
| 2026-04-26 15:18 | 55.53926 | 12.23827 | 3003 ft | 216 kts | 176° |
| 2026-04-26 15:19 | 55.52576 | 12.24806 | 2857 ft | 210 kts | 140° |
| 2026-04-26 15:19 | 55.51809 | 12.26906 | 2650 ft | 203 kts | 110° |
| 2026-04-26 15:19 | 55.51387 | 12.29261 | 2270 ft | 202 kts | 107° |
| 2026-04-26 15:19 | 55.51141 | 12.31712 | 2055 ft | 205 kts | 85° |
| 2026-04-26 15:20 | 55.51312 | 12.34237 | 2058 ft | 208 kts | 82° |
| 2026-04-26 15:20 | 55.51447 | 12.36754 | 2002 ft | 204 kts | 83° |
| 2026-04-26 15:20 | 55.51568 | 12.39217 | 2007 ft | 201 kts | 83° |
| 2026-04-26 15:20 | 55.51692 | 12.41697 | 2006 ft | 203 kts | 83° |
| 2026-04-26 15:21 | 55.51816 | 12.44179 | 2007 ft | 203 kts | 83° |
| 2026-04-26 15:21 | 55.51938 | 12.46661 | 2004 ft | 204 kts | 83° |
| 2026-04-26 15:21 | 55.52056 | 12.49093 | 1973 ft | 190 kts | 82° |
| 2026-04-26 15:21 | 55.52470 | 12.51090 | 1957 ft | 161 kts | 38° |
| 2026-04-26 15:22 | 55.53303 | 12.52232 | 1902 ft | 156 kts | 40° |
| 2026-04-26 15:22 | 55.54036 | 12.53621 | 1737 ft | 155 kts | 38° |
| 2026-04-26 15:22 | 55.54861 | 12.54867 | 1532 ft | 154 kts | 36° |
| 2026-04-26 15:22 | 55.55682 | 12.56118 | 1299 ft | 156 kts | 37° |
| 2026-04-26 15:23 | 55.56532 | 12.57262 | 1080 ft | 152 kts | 21° |
| 2026-04-26 15:23 | 55.57516 | 12.57953 | 760 ft | 154 kts | 22° |
| 2026-04-26 15:23 | 55.58406 | 12.59064 | 361 ft | 157 kts | 39° |
| 2026-04-26 15:23 | 55.59205 | 12.60346 | 85 ft | 152 kts | 36° |
| 2026-04-26 15:24 | 55.59971 | 12.61514 | 19 ft | 130 kts | 39° |
| 2026-04-26 15:24 | 55.60541 | 12.62396 | 19 ft | 87 kts | 41° |
| 2026-04-26 15:24 | 55.60871 | 12.62825 | 18 ft | 45 kts | 18° |
| 2026-04-26 15:24 | 55.61107 | 12.62928 | 16 ft | 26 kts | 18° |
| 2026-04-26 15:25 | 55.61221 | 12.63066 | 16 ft | 19 kts | 45° |
| 2026-04-26 15:25 | 55.61286 | 12.63172 | 16 ft | 19 kts | 43° |
| 2026-04-26 15:25 | 55.61416 | 12.63372 | 16 ft | 18 kts | 41° |
| 2026-04-26 15:25 | 55.61510 | 12.63516 | 16 ft | 18 kts | 41° |
| 2026-04-26 15:26 | 55.61601 | 12.63656 | 16 ft | 17 kts | 41° |
| 2026-04-26 15:26 | 55.61688 | 12.63791 | 16 ft | 16 kts | 40° |
| 2026-04-26 15:26 | 55.61769 | 12.63918 | 16 ft | 9 kts | 41° |
| 2026-04-26 15:26 | 55.61818 | 12.63989 | 17 ft | 9 kts | 38° |
| 2026-04-26 15:27 | 55.61865 | 12.64061 | 16 ft | 9 kts | 34° |
| 2026-04-26 15:27 | 55.61919 | 12.64112 | 18 ft | 9 kts | 25° |
| 2026-04-26 15:27 | 55.61985 | 12.64165 | 16 ft | 11 kts | 25° |
| 2026-04-26 15:27 | 55.62062 | 12.64231 | 18 ft | 13 kts | 26° |
| 2026-04-26 15:28 | 55.62153 | 12.64307 | 15 ft | 16 kts | 25° |
| 2026-04-26 15:28 | 55.62249 | 12.64419 | 16 ft | 17 kts | 60° |
| 2026-04-26 15:28 | 55.62291 | 12.64578 | 16 ft | 5 kts | 66° |
| 2026-04-26 15:28 | 55.62308 | 12.64643 | 18 ft | 7 kts | 64° |
| 2026-04-26 15:29 | 55.62329 | 12.64730 | 16 ft | 9 kts | 66° |
| 2026-04-26 15:29 | 55.62350 | 12.64845 | 16 ft | 11 kts | 97° |
| 2026-04-26 15:29 | 55.62274 | 12.65130 | 16 ft | 15 kts | 85° |
| 2026-04-26 15:30 | 55.62437 | 12.65299 | 16 ft | 16 kts | 86° |
| 2026-04-26 15:30 | 55.62463 | 12.65433 | 16 ft | 9 kts | 28° |
| 2026-04-26 15:30 | 55.62504 | 12.65466 | 16 ft | 3 kts | 24° |
| 2026-04-26 15:31 | 55.62509 | 12.65470 | 18 ft | 0 kts | 24° |